createdAt,value
2022-11-28T00:00:58.746Z,0
2022-11-28T00:01:59.906Z,0
2022-11-28T00:03:01.089Z,0
2022-11-28T00:04:01.503Z,0
2022-11-28T00:05:02.265Z,0
2022-11-28T00:06:04.303Z,0
2022-11-28T00:07:03.067Z,0
2022-11-28T00:08:03.853Z,0
2022-11-28T00:09:04.090Z,0
2022-11-28T00:10:04.717Z,0
2022-11-28T00:11:06.086Z,0
2022-11-28T00:12:06.380Z,0
2022-11-28T00:13:06.865Z,0
2022-11-28T00:14:06.798Z,0
2022-11-28T00:15:07.724Z,0
2022-11-28T00:16:08.603Z,0
2022-11-28T00:17:08.525Z,0
2022-11-28T00:18:09.970Z,0
2022-11-28T00:19:09.582Z,0
2022-11-28T00:20:11.090Z,0
2022-11-28T00:21:11.411Z,0
2022-11-28T00:22:11.895Z,0
2022-11-28T00:23:11.806Z,0
2022-11-28T00:24:12.436Z,0
2022-11-28T00:25:13.639Z,0
2022-11-28T00:26:12.973Z,0
2022-11-28T00:27:14.156Z,0
2022-11-28T00:28:14.796Z,0
2022-11-28T00:29:16.278Z,0
2022-11-28T00:30:16.179Z,0
2022-11-28T00:31:17.507Z,0
2022-11-28T00:32:17.809Z,0
2022-11-28T00:33:18.211Z,0
2022-11-28T00:34:18.129Z,0
2022-11-28T00:35:17.737Z,0
2022-11-28T00:36:18.602Z,0
2022-11-28T00:37:18.492Z,0
2022-11-28T00:38:19.688Z,0
2022-11-28T00:39:19.613Z,0
2022-11-28T00:40:19.961Z,0
2022-11-28T00:41:19.914Z,0
2022-11-28T00:42:21.128Z,0
2022-11-28T00:43:22.057Z,0
2022-11-28T00:44:22.687Z,0
2022-11-28T00:45:23.983Z,0
2022-11-28T00:46:25.489Z,0
2022-11-28T00:47:25.671Z,0
2022-11-28T00:48:26.088Z,0
2022-11-28T00:49:26.080Z,0
2022-11-28T00:50:27.281Z,0
2022-11-28T00:51:27.317Z,0
2022-11-28T00:52:27.489Z,0
2022-11-28T00:53:27.803Z,0
2022-11-28T00:54:28.449Z,0
2022-11-28T00:55:29.927Z,0
2022-11-28T00:56:30.136Z,0
2022-11-28T00:57:30.345Z,0
2022-11-28T00:58:29.960Z,0
2022-11-28T00:59:30.293Z,0
2022-11-28T01:00:31.249Z,0
2022-11-28T01:01:32.105Z,0
2022-11-28T01:02:32.336Z,0
2022-11-28T01:03:32.225Z,0
2022-11-28T01:04:33.154Z,0
2022-11-28T01:05:34.081Z,0
2022-11-28T01:06:33.920Z,0
2022-11-28T01:07:35.177Z,0
2022-11-28T01:08:35.685Z,0
2022-11-28T01:09:35.891Z,0
2022-11-28T01:10:35.235Z,0
2022-11-28T01:11:36.034Z,0
2022-11-28T01:12:37.238Z,0
2022-11-28T01:13:37.441Z,0
2022-11-28T01:14:37.338Z,0
2022-11-28T01:15:38.545Z,0
2022-11-28T01:16:39.775Z,0
2022-11-28T01:17:39.970Z,0
2022-11-28T01:18:41.422Z,0
2022-11-28T01:19:41.608Z,0
2022-11-28T01:20:41.800Z,0
2022-11-28T01:21:43.140Z,0
2022-11-28T01:22:43.038Z,0
2022-11-28T01:23:44.526Z,0
2022-11-28T01:24:45.156Z,0
2022-11-28T01:25:45.655Z,0
2022-11-28T01:26:45.848Z,0
2022-11-28T01:27:45.737Z,0
2022-11-28T01:28:46.922Z,0
2022-11-28T01:29:46.814Z,0
2022-11-28T01:30:47.433Z,0
2022-11-28T01:31:48.965Z,0
2022-11-28T01:32:49.171Z,0
2022-11-28T01:33:50.317Z,0
2022-11-28T01:34:51.114Z,0
2022-11-28T01:35:50.733Z,0
2022-11-28T01:36:52.157Z,0
2022-11-28T01:37:52.044Z,0
2022-11-28T01:38:53.230Z,0
2022-11-28T01:39:53.574Z,0
2022-11-28T01:40:54.193Z,0
2022-11-28T01:41:55.003Z,0
2022-11-28T01:42:55.910Z,0
2022-11-28T01:43:57.396Z,0
2022-11-28T01:44:58.081Z,0
2022-11-28T01:45:57.418Z,0
2022-11-28T01:46:58.681Z,0
2022-11-28T01:47:59.203Z,0
2022-11-28T01:48:59.334Z,0
2022-11-28T01:49:58.944Z,0
2022-11-28T01:51:00.149Z,0
2022-11-28T01:52:00.172Z,0
2022-11-28T01:53:00.084Z,0
2022-11-28T01:54:00.411Z,0
2022-11-28T01:55:01.616Z,0
2022-11-28T01:56:01.522Z,0
2022-11-28T01:57:02.741Z,0
2022-11-28T01:58:02.629Z,0
2022-11-28T01:59:03.249Z,0
2022-11-28T02:00:03.858Z,0
2022-11-28T02:01:05.523Z,0
2022-11-28T02:02:05.924Z,0
2022-11-28T02:03:06.497Z,0
2022-11-28T02:04:06.924Z,0
2022-11-28T02:05:06.833Z,0
2022-11-28T02:06:07.761Z,0
2022-11-28T02:07:08.173Z,0
2022-11-28T02:08:08.323Z,0
2022-11-28T02:09:08.526Z,0
2022-11-28T02:10:09.445Z,0
2022-11-28T02:11:09.327Z,0
2022-11-28T02:12:10.410Z,0
2022-11-28T02:13:11.145Z,0
2022-11-28T02:14:12.342Z,0
2022-11-28T02:15:11.958Z,0
2022-11-28T02:16:13.393Z,0
2022-11-28T02:17:13.531Z,0
2022-11-28T02:18:13.714Z,0
2022-11-28T02:19:14.135Z,0
2022-11-28T02:20:14.337Z,0
2022-11-28T02:21:14.522Z,0
2022-11-28T02:22:15.541Z,0
2022-11-28T02:23:15.729Z,0
2022-11-28T02:24:16.643Z,0
2022-11-28T02:25:16.974Z,0
2022-11-28T02:26:18.526Z,0
2022-11-28T02:27:19.014Z,0
2022-11-28T02:28:18.906Z,0
2022-11-28T02:29:19.812Z,0
2022-11-28T02:30:20.436Z,0
2022-11-28T02:31:21.362Z,0
2022-11-28T02:32:21.844Z,0
2022-11-28T02:33:23.049Z,0
2022-11-28T02:34:22.895Z,0
2022-11-28T02:35:23.093Z,0
2022-11-28T02:36:23.278Z,0
2022-11-28T02:37:24.411Z,0
2022-11-28T02:38:24.314Z,0
2022-11-28T02:39:25.523Z,0
2022-11-28T02:40:26.155Z,0
2022-11-28T02:41:27.361Z,0
2022-11-28T02:42:27.502Z,0
2022-11-28T02:43:27.115Z,0
2022-11-28T02:44:28.301Z,0
2022-11-28T02:45:28.609Z,0
2022-11-28T02:46:30.397Z,0
2022-11-28T02:47:30.253Z,0
2022-11-28T02:48:31.168Z,0
2022-11-28T02:49:32.581Z,0
2022-11-28T02:50:32.769Z,0
2022-11-28T02:51:32.963Z,0
2022-11-28T02:52:33.338Z,0
2022-11-28T02:53:34.536Z,0
2022-11-28T02:54:34.145Z,0
2022-11-28T02:55:34.799Z,0
2022-11-28T02:56:35.712Z,0
2022-11-28T02:57:36.345Z,0
2022-11-28T02:58:37.827Z,0
2022-11-28T02:59:38.025Z,0
2022-11-28T03:00:38.505Z,0
2022-11-28T03:01:39.113Z,0
2022-11-28T03:02:40.444Z,0
2022-11-28T03:03:39.354Z,0
2022-11-28T03:04:41.027Z,0
2022-11-28T03:05:40.818Z,0
2022-11-28T03:06:40.740Z,0
2022-11-28T03:07:41.882Z,0
2022-11-28T03:08:40.524Z,0
2022-11-28T03:09:41.159Z,0
2022-11-28T03:10:42.347Z,0
2022-11-28T03:11:41.960Z,0
2022-11-28T03:12:43.368Z,0
2022-11-28T03:13:43.954Z,0
2022-11-28T03:14:44.470Z,0
2022-11-28T03:15:44.227Z,0
2022-11-28T03:16:45.565Z,0
2022-11-28T03:17:45.930Z,0
2022-11-28T03:18:46.547Z,0
2022-11-28T03:19:47.684Z,0
2022-11-28T03:20:47.315Z,0
2022-11-28T03:21:48.503Z,0
2022-11-28T03:22:49.285Z,0
2022-11-28T03:23:49.178Z,0
2022-11-28T03:24:50.325Z,0
2022-11-28T03:25:49.945Z,0
2022-11-28T03:26:51.134Z,0
2022-11-28T03:27:52.064Z,0
2022-11-28T03:28:58.616Z,0
2022-11-28T03:29:51.939Z,0
2022-11-28T03:30:52.568Z,0
2022-11-28T03:31:53.704Z,0
2022-11-28T03:32:53.945Z,0
2022-11-28T03:33:55.156Z,0
2022-11-28T03:34:55.970Z,0
2022-11-28T03:35:55.883Z,0
2022-11-28T03:36:56.373Z,0
2022-11-28T03:37:56.521Z,0
2022-11-28T03:38:57.010Z,0
2022-11-28T03:39:57.198Z,0
2022-11-28T03:40:57.685Z,0
2022-11-28T03:41:57.874Z,0
2022-11-28T03:42:58.085Z,0
2022-11-28T03:43:59.267Z,0
2022-11-28T03:45:00.291Z,0
2022-11-28T03:46:00.472Z,0
2022-11-28T03:47:01.376Z,0
2022-11-28T03:48:01.433Z,0
2022-11-28T03:49:02.077Z,0
2022-11-28T03:50:03.411Z,0
2022-11-28T03:51:03.898Z,0
2022-11-28T03:52:04.105Z,0
2022-11-28T03:53:05.149Z,0
2022-11-28T03:54:05.057Z,0
2022-11-28T03:55:05.691Z,0
2022-11-28T03:56:06.962Z,0
2022-11-28T03:57:07.202Z,0
2022-11-28T03:58:07.819Z,0
2022-11-28T03:59:09.366Z,0
2022-11-28T04:00:08.980Z,0
2022-11-28T04:01:10.374Z,0
2022-11-28T04:02:10.025Z,0
2022-11-28T04:03:11.583Z,0
2022-11-28T04:04:10.955Z,0
2022-11-28T04:05:12.383Z,0
2022-11-28T04:06:11.725Z,0
2022-11-28T04:07:13.275Z,0
2022-11-28T04:08:14.004Z,0
2022-11-28T04:09:19.609Z,0
2022-11-28T04:10:14.246Z,0
2022-11-28T04:11:14.874Z,0
2022-11-28T04:12:15.494Z,0
2022-11-28T04:13:16.030Z,0
2022-11-28T04:14:16.943Z,0
2022-11-28T04:15:17.428Z,0
2022-11-28T04:16:17.930Z,0
2022-11-28T04:17:17.906Z,0
2022-11-28T04:18:18.934Z,0
2022-11-28T04:19:18.845Z,0
2022-11-28T04:20:20.275Z,0
2022-11-28T04:21:20.496Z,0
2022-11-28T04:22:20.400Z,0
2022-11-28T04:23:21.459Z,0
2022-11-28T04:24:21.645Z,0
2022-11-28T04:25:22.591Z,0
2022-11-28T04:26:22.504Z,0
2022-11-28T04:27:23.414Z,0
2022-11-28T04:28:24.591Z,0
2022-11-28T04:29:24.501Z,0
2022-11-28T04:30:25.131Z,0
2022-11-28T04:31:26.106Z,0
2022-11-28T04:32:27.293Z,0
2022-11-28T04:33:26.919Z,0
2022-11-28T04:34:27.803Z,0
2022-11-28T04:35:28.994Z,0
2022-11-28T04:36:28.605Z,0
2022-11-28T04:37:30.098Z,0
2022-11-28T04:38:30.810Z,0
2022-11-28T04:39:30.710Z,0
2022-11-28T04:40:31.893Z,0
2022-11-28T04:41:32.107Z,0
2022-11-28T04:42:32.727Z,0
2022-11-28T04:43:33.850Z,0
2022-11-28T04:44:34.056Z,0
2022-11-28T04:45:34.815Z,0
2022-11-28T04:46:36.007Z,0
2022-11-28T04:47:36.940Z,0
2022-11-28T04:48:44.936Z,0
2022-11-28T04:49:37.878Z,0
2022-11-28T04:50:38.730Z,0
2022-11-28T04:51:39.647Z,0
2022-11-28T04:52:39.556Z,0
2022-11-28T04:53:40.881Z,0
2022-11-28T04:54:41.408Z,0
2022-11-28T04:55:41.158Z,0
2022-11-28T04:56:42.356Z,0
2022-11-28T04:57:43.055Z,0
2022-11-28T04:58:44.549Z,0
2022-11-28T04:59:44.461Z,0
2022-11-28T05:00:45.652Z,0
2022-11-28T05:01:46.808Z,0
2022-11-28T05:02:46.735Z,0
2022-11-28T05:03:53.404Z,0
2022-11-28T05:04:48.682Z,0
2022-11-28T05:05:49.076Z,0
2022-11-28T05:06:48.709Z,0
2022-11-28T05:07:50.298Z,0
2022-11-28T05:08:51.042Z,0
2022-11-28T05:09:51.228Z,0
2022-11-28T05:10:51.117Z,0
2022-11-28T05:11:51.725Z,0
2022-11-28T05:12:52.638Z,0
2022-11-28T05:13:53.706Z,0
2022-11-28T05:14:54.810Z,0
2022-11-28T05:15:54.799Z,0
2022-11-28T05:16:55.747Z,0
2022-11-28T05:17:58.891Z,0
2022-11-28T05:18:57.115Z,0
2022-11-28T05:19:56.454Z,0
2022-11-28T05:20:57.889Z,0
2022-11-28T05:21:57.810Z,0
2022-11-28T05:22:58.720Z,0
2022-11-28T05:23:58.757Z,0
2022-11-28T05:24:58.684Z,0
2022-11-28T05:25:59.315Z,0
2022-11-28T05:27:00.509Z,0
2022-11-28T05:28:00.851Z,0
2022-11-28T05:29:01.824Z,0
2022-11-28T05:30:08.601Z,0
2022-11-28T05:31:03.511Z,0
2022-11-28T05:32:04.447Z,0
2022-11-28T05:33:04.115Z,0
2022-11-28T05:34:04.759Z,0
2022-11-28T05:35:05.942Z,0
2022-11-28T05:36:09.867Z,0
2022-11-28T05:37:05.970Z,0
2022-11-28T05:38:09.372Z,0
2022-11-28T05:39:07.112Z,0
2022-11-28T05:40:07.004Z,0
2022-11-28T05:41:07.908Z,0
2022-11-28T05:42:09.201Z,0
2022-11-28T05:43:08.823Z,0
2022-11-28T05:44:10.250Z,0
2022-11-28T05:45:09.852Z,0
2022-11-28T05:46:10.682Z,0
2022-11-28T05:47:11.923Z,0
2022-11-28T05:48:12.127Z,0
2022-11-28T05:49:12.718Z,0
2022-11-28T05:50:12.053Z,0
2022-11-28T05:51:13.802Z,0
2022-11-28T05:52:14.014Z,0
2022-11-28T05:53:13.918Z,0
2022-11-28T05:54:14.543Z,0
2022-11-28T05:55:14.432Z,0
2022-11-28T05:56:15.052Z,0
2022-11-28T05:57:15.679Z,0
2022-11-28T05:58:16.909Z,0
2022-11-28T05:59:16.530Z,0
2022-11-28T06:00:17.131Z,0
2022-11-28T06:01:18.343Z,0
2022-11-28T06:02:19.217Z,0
2022-11-28T06:03:19.860Z,0
2022-11-28T06:04:20.825Z,0
2022-11-28T06:05:54.984Z,0
2022-11-28T06:06:21.398Z,0
2022-11-28T06:07:20.865Z,0
2022-11-28T06:08:21.797Z,0
2022-11-28T06:09:27.566Z,0
2022-11-28T06:10:23.448Z,0
2022-11-28T06:11:24.346Z,0
2022-11-28T06:12:25.536Z,0
2022-11-28T06:13:26.169Z,0
2022-11-28T06:14:27.573Z,0
2022-11-28T06:15:27.864Z,0
2022-11-28T06:16:28.007Z,0
2022-11-28T06:17:28.237Z,0
2022-11-28T06:18:28.723Z,0
2022-11-28T06:19:29.654Z,0
2022-11-28T06:20:29.557Z,0
2022-11-28T06:21:30.685Z,0
2022-11-28T06:22:30.595Z,0
2022-11-28T06:23:31.488Z,0
2022-11-28T06:24:32.714Z,0
2022-11-28T06:25:32.895Z,0
2022-11-28T06:26:33.502Z,0
2022-11-28T06:27:33.888Z,0
2022-11-28T06:28:35.083Z,0
2022-11-28T06:29:35.292Z,0
2022-11-28T06:30:36.222Z,0
2022-11-28T06:31:36.729Z,0
2022-11-28T06:32:38.878Z,0
2022-11-28T06:33:37.088Z,0
2022-11-28T06:34:37.609Z,0
2022-11-28T06:35:37.799Z,0
2022-11-28T06:36:38.217Z,0
2022-11-28T06:37:38.422Z,0
2022-11-28T06:38:37.462Z,0
2022-11-28T06:39:38.884Z,0
2022-11-28T06:40:38.774Z,0
2022-11-28T06:41:38.997Z,0
2022-11-28T06:42:39.630Z,0
2022-11-28T06:43:40.832Z,0
2022-11-28T06:44:40.622Z,0
2022-11-28T06:45:42.135Z,0
2022-11-28T06:46:42.331Z,0
2022-11-28T06:47:42.249Z,0
2022-11-28T06:48:42.882Z,0
2022-11-28T06:49:44.464Z,0
2022-11-28T06:50:43.967Z,0
2022-11-28T06:51:46.427Z,0
2022-11-28T06:52:46.338Z,0
2022-11-28T06:53:47.795Z,0
2022-11-28T06:54:48.416Z,0
2022-11-28T06:55:47.735Z,0
2022-11-28T06:56:49.072Z,0
2022-11-28T06:57:50.028Z,0
2022-11-28T06:58:49.926Z,0
2022-11-28T06:59:51.238Z,0
2022-11-28T07:00:52.312Z,0
2022-11-28T07:01:52.236Z,0
2022-11-28T07:02:52.586Z,0
2022-11-28T07:03:52.263Z,0
2022-11-28T07:04:53.480Z,0
2022-11-28T07:05:53.696Z,0
2022-11-28T07:06:54.404Z,0
2022-11-28T07:08:10.333Z,0
2022-11-28T07:08:54.614Z,0
2022-11-28T07:09:56.875Z,0
2022-11-28T07:10:55.775Z,0
2022-11-28T07:11:56.410Z,0
2022-11-28T07:12:59.330Z,0
2022-11-28T07:13:58.306Z,0
2022-11-28T07:14:58.175Z,0
2022-11-28T07:15:59.363Z,0
2022-11-28T07:17:00.530Z,0
2022-11-28T07:18:00.212Z,0
2022-11-28T07:19:01.430Z,0
2022-11-28T07:20:06.793Z,5.63
2022-11-28T07:21:01.983Z,5.63
2022-11-28T07:22:03.412Z,5.63
2022-11-28T07:23:03.899Z,5.63
2022-11-28T07:24:03.815Z,5.63
2022-11-28T07:25:04.770Z,5.63
2022-11-28T07:26:04.375Z,5.63
2022-11-28T07:27:05.628Z,5.63
2022-11-28T07:28:05.555Z,5.63
2022-11-28T07:29:05.444Z,5.63
2022-11-28T07:30:06.062Z,5.63
2022-11-28T07:31:07.259Z,5.63
2022-11-28T07:32:07.957Z,5.63
2022-11-28T07:33:08.882Z,5.63
2022-11-28T07:34:09.573Z,5.63
2022-11-28T07:35:09.786Z,5.63
2022-11-28T07:36:10.994Z,11.25
2022-11-28T07:37:11.396Z,11.25
2022-11-28T07:38:11.588Z,11.25
2022-11-28T07:39:11.790Z,11.25
2022-11-28T07:40:12.504Z,11.25
2022-11-28T07:41:12.989Z,11.25
2022-11-28T07:42:13.720Z,11.25
2022-11-28T07:43:14.205Z,11.25
2022-11-28T07:44:14.409Z,11.25
2022-11-28T07:45:15.128Z,11.25
2022-11-28T07:46:18.077Z,11.25
2022-11-28T07:47:16.639Z,11.25
2022-11-28T07:48:16.860Z,11.25
2022-11-28T07:49:17.079Z,11.25
2022-11-28T07:50:17.604Z,11.25
2022-11-28T07:51:17.490Z,16.88
2022-11-28T07:52:18.434Z,16.88
2022-11-28T07:53:23.448Z,16.88
2022-11-28T07:54:19.119Z,16.88
2022-11-28T07:55:20.181Z,16.88
2022-11-28T07:56:20.684Z,16.88
2022-11-28T07:57:29.509Z,16.88
2022-11-28T07:58:21.147Z,16.88
2022-11-28T07:59:21.325Z,16.88
2022-11-28T08:00:22.531Z,16.88
2022-11-28T08:01:23.895Z,16.88
2022-11-28T08:02:24.573Z,16.88
2022-11-28T08:03:24.258Z,16.88
2022-11-28T08:04:26.173Z,16.88
2022-11-28T08:05:26.772Z,16.88
2022-11-28T08:06:26.971Z,22.5
2022-11-28T08:07:28.183Z,22.5
2022-11-28T08:08:27.826Z,22.5
2022-11-28T08:09:29.022Z,22.5
2022-11-28T08:10:29.627Z,22.5
2022-11-28T08:11:29.803Z,22.5
2022-11-28T08:12:30.175Z,22.5
2022-11-28T08:13:31.385Z,22.5
2022-11-28T08:14:31.025Z,22.5
2022-11-28T08:15:32.603Z,22.5
2022-11-28T08:16:33.431Z,22.5
2022-11-28T08:17:33.076Z,22.5
2022-11-28T08:18:33.967Z,22.5
2022-11-28T08:19:46.426Z,22.5
2022-11-28T08:20:36.309Z,22.5
2022-11-28T08:21:36.792Z,22.5
2022-11-28T08:22:37.017Z,22.5
2022-11-28T08:23:37.221Z,22.5
2022-11-28T08:24:38.139Z,22.5
2022-11-28T08:25:38.650Z,22.5
2022-11-28T08:26:44.746Z,22.5
2022-11-28T08:27:39.940Z,22.5
2022-11-28T08:28:40.656Z,22.5
2022-11-28T08:29:41.739Z,22.5
2022-11-28T08:30:42.758Z,22.5
2022-11-28T08:31:42.643Z,28.13
2022-11-28T08:32:43.826Z,28.13
2022-11-28T08:33:44.759Z,28.13
2022-11-28T08:34:44.650Z,28.13
2022-11-28T08:35:46.256Z,28.13
2022-11-28T08:36:46.535Z,28.13
2022-11-28T08:37:46.778Z,28.13
2022-11-28T08:39:03.772Z,28.13
2022-11-28T08:39:47.363Z,28.13
2022-11-28T08:40:47.930Z,28.13
2022-11-28T08:41:47.854Z,28.13
2022-11-28T08:42:48.761Z,28.13
2022-11-28T08:43:50.253Z,28.13
2022-11-28T08:44:50.496Z,28.13
2022-11-28T08:45:51.375Z,28.13
2022-11-28T08:46:52.322Z,22.5
2022-11-28T08:47:51.949Z,22.5
2022-11-28T08:48:52.876Z,22.5
2022-11-28T08:49:54.747Z,22.5
2022-11-28T08:50:59.038Z,22.5
2022-11-28T08:51:54.952Z,22.5
2022-11-28T08:53:01.643Z,22.5
2022-11-28T08:54:05.007Z,22.5
2022-11-28T08:54:57.125Z,22.5
2022-11-28T08:55:58.387Z,22.5
2022-11-28T08:56:58.867Z,22.5
2022-11-28T08:57:59.078Z,22.5
2022-11-28T08:58:58.696Z,22.5
2022-11-28T08:59:59.916Z,22.5
2022-11-28T09:01:00.242Z,22.5
2022-11-28T09:02:01.500Z,22.5
2022-11-28T09:03:01.430Z,22.5
2022-11-28T09:04:03.076Z,22.5
2022-11-28T09:05:02.727Z,22.5
2022-11-28T09:06:04.047Z,22.5
2022-11-28T09:07:03.695Z,22.5
2022-11-28T09:08:07.804Z,22.5
2022-11-28T09:09:04.812Z,22.5
2022-11-28T09:10:06.173Z,22.5
2022-11-28T09:11:06.399Z,22.5
2022-11-28T09:12:06.880Z,22.5
2022-11-28T09:13:07.377Z,22.5
2022-11-28T09:14:08.046Z,22.5
2022-11-28T09:15:07.684Z,22.5
2022-11-28T09:16:10.132Z,28.13
2022-11-28T09:17:10.220Z,28.13
2022-11-28T09:18:09.451Z,28.13
2022-11-28T09:19:09.542Z,28.13
2022-11-28T09:20:10.773Z,28.13
2022-11-28T09:21:10.694Z,28.13
2022-11-28T09:22:14.208Z,28.13
2022-11-28T09:23:12.483Z,28.13
2022-11-28T09:24:12.395Z,28.13
2022-11-28T09:25:13.654Z,28.13
2022-11-28T09:26:14.021Z,28.13
2022-11-28T09:27:14.212Z,28.13
2022-11-28T09:28:14.443Z,28.13
2022-11-28T09:29:15.006Z,28.13
2022-11-28T09:30:14.342Z,28.13
2022-11-28T09:31:16.146Z,28.13
2022-11-28T09:32:16.496Z,28.13
2022-11-28T09:33:17.465Z,28.13
2022-11-28T09:34:17.761Z,28.13
2022-11-28T09:35:18.007Z,33.75
2022-11-28T09:36:18.861Z,33.75
2022-11-28T09:37:22.004Z,33.75
2022-11-28T09:38:20.560Z,33.75
2022-11-28T09:39:20.476Z,33.75
2022-11-28T09:40:31.272Z,33.75
2022-11-28T09:41:21.242Z,33.75
2022-11-28T09:42:21.437Z,33.75
2022-11-28T09:43:21.363Z,33.75
2022-11-28T09:44:22.275Z,33.75
2022-11-28T09:45:23.227Z,33.75
2022-11-28T09:46:23.214Z,33.75
2022-11-28T09:47:23.863Z,33.75
2022-11-28T09:48:25.056Z,33.75
2022-11-28T09:49:25.250Z,33.75
2022-11-28T09:50:25.741Z,39.38
2022-11-28T09:51:26.271Z,39.38
2022-11-28T09:52:26.555Z,39.38
2022-11-28T09:53:27.584Z,39.38
2022-11-28T09:54:28.098Z,39.38
2022-11-28T09:55:28.054Z,33.75
2022-11-28T09:56:28.398Z,33.75
2022-11-28T09:57:28.881Z,33.75
2022-11-28T09:58:28.199Z,33.75
2022-11-28T09:59:29.412Z,33.75
2022-11-28T10:00:30.290Z,33.75
2022-11-28T10:01:30.211Z,33.75
2022-11-28T10:02:31.457Z,33.75
2022-11-28T10:03:32.239Z,33.75
2022-11-28T10:04:32.860Z,33.75
2022-11-28T10:05:33.133Z,33.75
2022-11-28T10:06:33.680Z,33.75
2022-11-28T10:07:34.278Z,33.75
2022-11-28T10:08:34.583Z,33.75
2022-11-28T10:09:34.509Z,33.75
2022-11-28T10:10:34.829Z,33.75
2022-11-28T10:11:36.482Z,33.75
2022-11-28T10:12:37.675Z,33.75
2022-11-28T10:14:17.400Z,33.75
2022-11-28T10:14:38.316Z,33.75
2022-11-28T10:15:39.829Z,33.75
2022-11-28T10:16:41.094Z,33.75
2022-11-28T10:17:41.342Z,33.75
2022-11-28T10:18:41.840Z,33.75
2022-11-28T10:20:13.755Z,33.75
2022-11-28T10:20:42.427Z,33.75
2022-11-28T10:21:43.129Z,33.75
2022-11-28T10:22:44.032Z,33.75
2022-11-28T10:23:45.558Z,33.75
2022-11-28T10:24:46.107Z,33.75
2022-11-28T10:25:46.895Z,39.38
2022-11-28T10:26:46.995Z,39.38
2022-11-28T10:27:47.902Z,39.38
2022-11-28T10:28:49.121Z,39.38
2022-11-28T10:29:49.316Z,39.38
2022-11-28T10:30:49.579Z,45
2022-11-28T10:31:49.484Z,45
2022-11-28T10:32:50.398Z,45
2022-11-28T10:33:50.609Z,45
2022-11-28T10:34:51.245Z,45
2022-11-28T10:35:52.162Z,50.63
2022-11-28T10:36:53.504Z,50.63
2022-11-28T10:37:53.697Z,50.63
2022-11-28T10:38:54.958Z,50.63
2022-11-28T10:39:55.785Z,50.63
2022-11-28T10:40:55.970Z,50.63
2022-11-28T10:41:55.946Z,50.63
2022-11-28T10:42:56.832Z,50.63
2022-11-28T10:43:58.034Z,56.25
2022-11-28T10:44:57.350Z,56.25
2022-11-28T10:45:58.570Z,56.25
2022-11-28T10:46:59.131Z,56.25
2022-11-28T10:48:01.280Z,56.25
2022-11-28T10:48:59.706Z,56.25
2022-11-28T10:50:00.287Z,56.25
2022-11-28T10:50:59.906Z,56.25
2022-11-28T10:52:00.851Z,56.25
2022-11-28T10:53:02.062Z,61.88
2022-11-28T10:54:02.013Z,61.88
2022-11-28T10:55:03.201Z,61.88
2022-11-28T10:56:06.120Z,61.88
2022-11-28T10:57:03.946Z,61.88
2022-11-28T10:58:04.846Z,61.88
2022-11-28T10:59:06.071Z,67.5
2022-11-28T11:00:06.261Z,67.5
2022-11-28T11:01:07.458Z,67.5
2022-11-28T11:02:07.146Z,67.5
2022-11-28T11:03:07.498Z,73.13
2022-11-28T11:04:08.711Z,73.13
2022-11-28T11:05:09.612Z,73.13
2022-11-28T11:06:09.523Z,73.13
2022-11-28T11:07:40.663Z,73.13
2022-11-28T11:08:27.438Z,73.13
2022-11-28T11:09:27.505Z,73.13
2022-11-28T11:10:28.129Z,73.13
2022-11-28T11:11:29.092Z,73.13
2022-11-28T11:12:30.046Z,73.13
2022-11-28T11:13:30.234Z,73.13
2022-11-28T11:14:30.731Z,73.13
2022-11-28T11:15:30.379Z,73.13
2022-11-28T11:16:31.542Z,73.13
2022-11-28T11:17:38.078Z,73.13
2022-11-28T11:18:33.284Z,73.13
2022-11-28T11:19:33.205Z,73.13
2022-11-28T11:20:34.121Z,73.13
2022-11-28T11:21:34.329Z,67.5
2022-11-28T11:22:34.687Z,67.5
2022-11-28T11:23:40.654Z,67.5
2022-11-28T11:24:35.975Z,61.88
2022-11-28T11:25:36.470Z,61.88
2022-11-28T11:26:36.724Z,61.88
2022-11-28T11:27:36.783Z,61.88
2022-11-28T11:28:37.976Z,56.25
2022-11-28T11:29:38.177Z,56.25
2022-11-28T11:30:39.659Z,56.25
2022-11-28T11:31:40.027Z,50.63
2022-11-28T11:32:40.251Z,50.63
2022-11-28T11:33:40.567Z,50.63
2022-11-28T11:34:40.769Z,50.63
2022-11-28T11:35:40.977Z,50.63
2022-11-28T11:36:41.533Z,50.63
2022-11-28T11:37:41.448Z,45
2022-11-28T11:38:49.301Z,45
2022-11-28T11:39:42.940Z,45
2022-11-28T11:40:42.484Z,45
2022-11-28T11:41:43.409Z,39.38
2022-11-28T11:42:44.139Z,39.38
2022-11-28T11:43:45.327Z,39.38
2022-11-28T11:44:46.287Z,39.38
2022-11-28T11:45:49.768Z,39.38
2022-11-28T11:46:46.734Z,39.38
2022-11-28T11:47:46.859Z,39.38
2022-11-28T11:48:47.506Z,39.38
2022-11-28T11:49:49.006Z,39.38
2022-11-28T11:50:48.934Z,39.38
2022-11-28T11:51:54.289Z,33.75
2022-11-28T11:52:50.267Z,33.75
2022-11-28T11:53:50.459Z,33.75
2022-11-28T11:54:51.800Z,33.75
2022-11-28T11:55:52.003Z,33.75
2022-11-28T11:57:00.866Z,33.75
2022-11-28T11:58:04.212Z,33.75
2022-11-28T11:59:00.310Z,33.75
2022-11-28T12:00:02.113Z,33.75
2022-11-28T12:01:02.325Z,33.75
2022-11-28T12:02:02.278Z,33.75
2022-11-28T12:03:03.599Z,33.75
2022-11-28T12:04:17.810Z,33.75
2022-11-28T12:05:09.403Z,28.13
2022-11-28T12:06:29.697Z,28.13
2022-11-28T12:07:05.734Z,28.13
2022-11-28T12:08:06.938Z,28.13
2022-11-28T12:09:06.921Z,28.13
2022-11-28T12:10:16.121Z,28.13
2022-11-28T12:11:08.085Z,22.5
2022-11-28T12:12:09.276Z,22.5
2022-11-28T12:13:09.903Z,22.5
2022-11-28T12:14:11.085Z,22.5
2022-11-28T12:15:11.595Z,22.5
2022-11-28T12:16:12.189Z,22.5
2022-11-28T12:18:03.753Z,22.5
2022-11-28T12:18:51.230Z,22.5
2022-11-28T12:19:52.952Z,22.5
2022-11-28T12:20:53.296Z,22.5
2022-11-28T12:21:53.501Z,22.5
2022-11-28T12:22:54.250Z,22.5
2022-11-28T12:23:54.558Z,22.5
2022-11-28T12:24:55.649Z,22.5
2022-11-28T12:25:56.172Z,22.5
2022-11-28T12:26:56.209Z,22.5
2022-11-28T12:27:56.455Z,22.5
2022-11-28T12:28:56.946Z,22.5
2022-11-28T12:29:57.619Z,22.5
2022-11-28T12:31:01.394Z,22.5
2022-11-28T12:31:58.668Z,22.5
2022-11-28T12:32:59.187Z,22.5
2022-11-28T12:33:59.402Z,22.5
2022-11-28T12:34:59.358Z,22.5
2022-11-28T12:36:05.764Z,22.5
2022-11-28T12:37:00.236Z,22.5
2022-11-28T12:38:26.862Z,22.5
2022-11-28T12:39:15.193Z,28.13
2022-11-28T12:40:15.503Z,28.13
2022-11-28T12:41:15.492Z,28.13
2022-11-28T12:42:17.062Z,28.13
2022-11-28T12:43:17.597Z,28.13
2022-11-28T12:44:17.339Z,28.13
2022-11-28T12:45:18.653Z,28.13
2022-11-28T12:46:18.601Z,28.13
2022-11-28T12:47:19.863Z,28.13
2022-11-28T12:48:20.071Z,28.13
2022-11-28T12:49:21.118Z,28.13
2022-11-28T12:50:21.187Z,28.13
2022-11-28T12:51:22.357Z,28.13
2022-11-28T12:52:22.943Z,33.75
2022-11-28T12:53:22.917Z,33.75
2022-11-28T12:54:24.165Z,33.75
2022-11-28T12:55:23.812Z,33.75
2022-11-28T12:56:25.118Z,33.75
2022-11-28T12:57:25.335Z,33.75
2022-11-28T12:58:25.550Z,33.75
2022-11-28T12:59:25.775Z,33.75
2022-11-28T13:00:26.282Z,33.75
2022-11-28T13:01:26.320Z,33.75
2022-11-28T13:02:27.895Z,33.75
2022-11-28T13:03:28.019Z,33.75
2022-11-28T13:04:27.659Z,33.75
2022-11-28T13:05:28.871Z,33.75
2022-11-28T13:06:29.099Z,33.75
2022-11-28T13:07:29.904Z,33.75
2022-11-28T13:08:30.282Z,33.75
2022-11-28T13:09:31.410Z,39.38
2022-11-28T13:10:32.620Z,39.38
2022-11-28T13:11:32.622Z,39.38
2022-11-28T13:12:32.545Z,39.38
2022-11-28T13:13:33.745Z,39.38
2022-11-28T13:14:34.006Z,39.38
2022-11-28T13:15:33.904Z,39.38
2022-11-28T13:16:41.709Z,39.38
2022-11-28T13:17:36.245Z,39.38
2022-11-28T13:18:36.466Z,39.38
2022-11-28T13:19:36.911Z,39.38
2022-11-28T13:20:37.986Z,33.75
2022-11-28T13:21:38.959Z,33.75
2022-11-28T13:22:40.311Z,33.75
2022-11-28T13:23:41.539Z,33.75
2022-11-28T13:24:41.771Z,33.75
2022-11-28T13:25:41.687Z,33.75
2022-11-28T13:26:42.942Z,33.75
2022-11-28T13:27:44.188Z,33.75
2022-11-28T13:28:44.113Z,33.75
2022-11-28T13:29:45.188Z,33.75
2022-11-28T13:30:45.252Z,33.75
2022-11-28T13:31:46.445Z,33.75
2022-11-28T13:32:46.751Z,33.75
2022-11-28T13:33:47.395Z,33.75
2022-11-28T13:34:48.311Z,28.13
2022-11-28T13:35:48.241Z,28.13
2022-11-28T13:39:08.103Z,28.13
2022-11-28T13:39:29.263Z,28.13
2022-11-28T13:40:25.965Z,28.13
2022-11-28T13:43:13.825Z,28.13
2022-11-28T13:43:30.352Z,28.13
2022-11-28T13:44:31.857Z,28.13
2022-11-28T13:45:44.910Z,28.13
2022-11-28T13:46:33.129Z,28.13
2022-11-28T13:47:34.395Z,28.13
2022-11-28T13:49:26.582Z,28.13
2022-11-28T13:49:43.778Z,28.13
2022-11-28T13:50:45.000Z,28.13
2022-11-28T13:51:48.262Z,28.13
2022-11-28T13:52:46.280Z,28.13
2022-11-28T13:53:46.569Z,28.13
2022-11-28T13:54:47.909Z,28.13
2022-11-28T13:55:47.912Z,28.13
2022-11-28T13:56:47.902Z,28.13
2022-11-28T13:57:49.521Z,28.13
2022-11-28T13:58:49.462Z,28.13
2022-11-28T13:59:49.358Z,28.13
2022-11-28T14:00:50.773Z,28.13
2022-11-28T14:01:51.030Z,28.13
2022-11-28T14:02:53.599Z,28.13
2022-11-28T14:03:55.090Z,28.13
2022-11-28T14:04:53.738Z,28.13
2022-11-28T14:05:54.367Z,28.13